首页
METAR-TAF:

METAR-TAF

机场 :

Stewart International Airport

Newburgh, 紐約州, 美国

纬度: 41-30N, 经度: 074-06W, 海拔: 150米

当前天气观测

该预报发布于41分钟前的19:45 UTC
风速11节,风向西北,有时为18节阵风
温度 20°C
湿度 32%
气压 1019 hPa
能見度: 16.1公里
多云层高于6000英尺

METAR: KSWF 011945Z 32011G18KT 10SM BKN060 20/03 A3009

时间: 16:26 (20:26 UTC)

预报

该预报发布于31分钟前的19:55 UTC
预报有效从01日的 20点(UTC)到 02日的 24点(UTC)
风速10节,风向西转西北,有时为17节阵风
能見度: 10公里
散云层高于8000英尺
从 02日的 0000点(UTC)
风速4节,风向西
能見度: 10公里
散云层高于10000英尺
多云层高于15000英尺
从 02日的 1700点(UTC)
风速9节,风向西
能見度: 10公里
散云层高于4000英尺
多云层高于7000英尺

TAF: KSWF 011955Z 0120/0224 29010G17KT P6SM SCT080 FM020000 27004KT P6SM SCT100 BKN150 FM021700 26009KT P6SM SCT040 BKN070 AMD NOT SKED

超过4000个机场的气象观测和天气预报(METAR&TAF报告)。

可查询的气象台以黄色和红色小点在地图上表示。

将鼠标移到小点上方,可查看气象台名称。

然后点击查看天气观测和预报。

如需切换地图:点击带黑十字的绿色按钮放大地图;点击带横线的绿色按钮缩小地图;或者点击绿色箭头查看邻近地区的地图。


METAR-TAF: